sensor_id;sensor_type;location;lat;lon;timestamp;P1;durP1;ratioP1;P2;durP2;ratioP2
33206;SDS011;19565;46.602;11.534;2023-07-31T00:00:11;1.67;;;0.73;;
33206;SDS011;19565;46.602;11.534;2023-07-31T00:02:40;0.50;;;0.50;;
33206;SDS011;19565;46.602;11.534;2023-07-31T00:05:08;1.85;;;1.23;;
33206;SDS011;19565;46.602;11.534;2023-07-31T00:07:36;1.30;;;0.82;;
33206;SDS011;19565;46.602;11.534;2023-07-31T00:10:05;0.98;;;0.57;;
33206;SDS011;19565;46.602;11.534;2023-07-31T00:12:35;4.30;;;0.60;;
33206;SDS011;19565;46.602;11.534;2023-07-31T00:15:03;0.40;;;0.40;;
33206;SDS011;19565;46.602;11.534;2023-07-31T00:17:32;0.30;;;0.30;;
33206;SDS011;19565;46.602;11.534;2023-07-31T00:20:00;0.52;;;0.52;;
33206;SDS011;19565;46.602;11.534;2023-07-31T00:22:28;1.60;;;1.08;;
33206;SDS011;19565;46.602;11.534;2023-07-31T00:24:56;1.67;;;1.58;;
33206;SDS011;19565;46.602;11.534;2023-07-31T00:27:25;0.68;;;0.68;;
33206;SDS011;19565;46.602;11.534;2023-07-31T00:29:55;0.63;;;0.63;;
33206;SDS011;19565;46.602;11.534;2023-07-31T00:32:23;0.75;;;0.75;;
33206;SDS011;19565;46.602;11.534;2023-07-31T00:34:51;0.32;;;0.30;;
33206;SDS011;19565;46.602;11.534;2023-07-31T00:37:19;0.55;;;0.55;;
33206;SDS011;19565;46.602;11.534;2023-07-31T00:39:47;1.20;;;0.70;;
33206;SDS011;19565;46.602;11.534;2023-07-31T00:42:15;0.75;;;0.75;;
33206;SDS011;19565;46.602;11.534;2023-07-31T00:44:43;0.75;;;0.75;;
33206;SDS011;19565;46.602;11.534;2023-07-31T00:47:12;4.60;;;1.38;;
33206;SDS011;19565;46.602;11.534;2023-07-31T00:49:40;1.38;;;1.10;;
33206;SDS011;19565;46.602;11.534;2023-07-31T00:52:09;0.20;;;0.20;;
33206;SDS011;19565;46.602;11.534;2023-07-31T00:54:37;0.47;;;0.47;;
33206;SDS011;19565;46.602;11.534;2023-07-31T00:57:06;1.33;;;0.77;;
33206;SDS011;19565;46.602;11.534;2023-07-31T00:59:35;0.75;;;0.73;;
33206;SDS011;19565;46.602;11.534;2023-07-31T01:02:03;0.55;;;0.55;;
33206;SDS011;19565;46.602;11.534;2023-07-31T01:04:33;7.93;;;0.95;;
33206;SDS011;19565;46.602;11.534;2023-07-31T01:07:03;1.10;;;0.88;;
33206;SDS011;19565;46.602;11.534;2023-07-31T01:09:37;0.98;;;0.73;;
33206;SDS011;19565;46.602;11.534;2023-07-31T01:12:13;0.73;;;0.65;;
33206;SDS011;19565;46.602;11.534;2023-07-31T01:14:50;9.45;;;0.98;;
33206;SDS011;19565;46.602;11.534;2023-07-31T01:17:19;1.17;;;0.73;;
33206;SDS011;19565;46.602;11.534;2023-07-31T01:19:48;1.65;;;1.08;;
33206;SDS011;19565;46.602;11.534;2023-07-31T01:22:27;1.23;;;0.47;;
33206;SDS011;19565;46.602;11.534;2023-07-31T01:25:07;0.20;;;0.20;;
33206;SDS011;19565;46.602;11.534;2023-07-31T01:27:50;0.35;;;0.35;;
33206;SDS011;19565;46.602;11.534;2023-07-31T01:30:24;2.33;;;1.20;;
33206;SDS011;19565;46.602;11.534;2023-07-31T01:32:55;1.38;;;0.77;;
33206;SDS011;19565;46.602;11.534;2023-07-31T01:35:25;1.20;;;1.00;;
33206;SDS011;19565;46.602;11.534;2023-07-31T01:37:53;0.50;;;0.50;;
33206;SDS011;19565;46.602;11.534;2023-07-31T01:40:21;0.50;;;0.47;;
33206;SDS011;19565;46.602;11.534;2023-07-31T01:42:50;2.90;;;0.95;;
33206;SDS011;19565;46.602;11.534;2023-07-31T01:45:18;1.27;;;1.17;;
33206;SDS011;19565;46.602;11.534;2023-07-31T01:47:47;0.80;;;0.80;;
33206;SDS011;19565;46.602;11.534;2023-07-31T01:50:15;0.95;;;0.73;;
33206;SDS011;19565;46.602;11.534;2023-07-31T01:52:43;0.93;;;0.85;;
33206;SDS011;19565;46.602;11.534;2023-07-31T01:55:11;0.52;;;0.50;;
33206;SDS011;19565;46.602;11.534;2023-07-31T01:57:39;0.65;;;0.32;;
33206;SDS011;19565;46.602;11.534;2023-07-31T02:00:09;0.32;;;0.32;;
33206;SDS011;19565;46.602;11.534;2023-07-31T02:02:37;0.22;;;0.22;;
33206;SDS011;19565;46.602;11.534;2023-07-31T02:05:06;1.17;;;1.08;;
33206;SDS011;19565;46.602;11.534;2023-07-31T02:07:34;0.30;;;0.30;;
33206;SDS011;19565;46.602;11.534;2023-07-31T02:10:02;0.93;;;0.57;;
33206;SDS011;19565;46.602;11.534;2023-07-31T02:12:30;1.05;;;0.95;;
33206;SDS011;19565;46.602;11.534;2023-07-31T02:14:59;2.00;;;1.10;;
33206;SDS011;19565;46.602;11.534;2023-07-31T02:17:29;0.52;;;0.52;;
33206;SDS011;19565;46.602;11.534;2023-07-31T02:19:57;0.40;;;0.40;;
33206;SDS011;19565;46.602;11.534;2023-07-31T02:22:25;0.40;;;0.40;;
33206;SDS011;19565;46.602;11.534;2023-07-31T02:24:53;0.60;;;0.60;;
33206;SDS011;19565;46.602;11.534;2023-07-31T02:27:21;0.75;;;0.55;;
33206;SDS011;19565;46.602;11.534;2023-07-31T02:29:53;2.60;;;1.15;;
33206;SDS011;19565;46.602;11.534;2023-07-31T02:32:21;0.50;;;0.50;;
33206;SDS011;19565;46.602;11.534;2023-07-31T02:34:51;1.60;;;0.98;;
33206;SDS011;19565;46.602;11.534;2023-07-31T02:37:19;0.70;;;0.70;;
33206;SDS011;19565;46.602;11.534;2023-07-31T02:39:47;0.45;;;0.45;;
33206;SDS011;19565;46.602;11.534;2023-07-31T02:42:15;0.93;;;0.65;;
33206;SDS011;19565;46.602;11.534;2023-07-31T02:44:43;0.60;;;0.50;;
33206;SDS011;19565;46.602;11.534;2023-07-31T02:47:11;0.93;;;0.82;;
33206;SDS011;19565;46.602;11.534;2023-07-31T02:49:39;0.20;;;0.20;;
33206;SDS011;19565;46.602;11.534;2023-07-31T02:52:08;1.15;;;1.13;;
33206;SDS011;19565;46.602;11.534;2023-07-31T02:54:36;0.40;;;0.40;;
33206;SDS011;19565;46.602;11.534;2023-07-31T02:57:04;0.40;;;0.40;;
33206;SDS011;19565;46.602;11.534;2023-07-31T02:59:33;0.88;;;0.80;;
33206;SDS011;19565;46.602;11.534;2023-07-31T03:02:01;1.58;;;0.65;;
33206;SDS011;19565;46.602;11.534;2023-07-31T03:04:29;0.30;;;0.30;;
33206;SDS011;19565;46.602;11.534;2023-07-31T03:06:57;1.27;;;0.73;;
33206;SDS011;19565;46.602;11.534;2023-07-31T03:09:27;0.70;;;0.70;;
33206;SDS011;19565;46.602;11.534;2023-07-31T03:11:55;0.98;;;0.88;;
33206;SDS011;19565;46.602;11.534;2023-07-31T03:14:23;0.55;;;0.32;;
33206;SDS011;19565;46.602;11.534;2023-07-31T03:16:53;2.65;;;1.27;;
33206;SDS011;19565;46.602;11.534;2023-07-31T03:19:21;0.65;;;0.65;;
33206;SDS011;19565;46.602;11.534;2023-07-31T03:21:49;0.40;;;0.40;;
33206;SDS011;19565;46.602;11.534;2023-07-31T03:24:17;0.65;;;0.65;;
33206;SDS011;19565;46.602;11.534;2023-07-31T03:26:46;0.30;;;0.30;;
33206;SDS011;19565;46.602;11.534;2023-07-31T03:29:14;0.75;;;0.75;;
33206;SDS011;19565;46.602;11.534;2023-07-31T03:31:42;0.85;;;0.85;;
33206;SDS011;19565;46.602;11.534;2023-07-31T03:34:10;1.15;;;0.82;;
33206;SDS011;19565;46.602;11.534;2023-07-31T03:36:38;0.60;;;0.57;;
33206;SDS011;19565;46.602;11.534;2023-07-31T03:39:07;0.77;;;0.77;;
33206;SDS011;19565;46.602;11.534;2023-07-31T03:41:35;0.57;;;0.57;;
33206;SDS011;19565;46.602;11.534;2023-07-31T03:44:04;0.95;;;0.70;;
33206;SDS011;19565;46.602;11.534;2023-07-31T03:46:33;1.80;;;1.55;;
33206;SDS011;19565;46.602;11.534;2023-07-31T03:49:03;1.98;;;1.58;;
33206;SDS011;19565;46.602;11.534;2023-07-31T03:51:31;1.35;;;1.13;;
33206;SDS011;19565;46.602;11.534;2023-07-31T03:53:59;0.30;;;0.30;;
33206;SDS011;19565;46.602;11.534;2023-07-31T03:56:27;0.65;;;0.60;;
33206;SDS011;19565;46.602;11.534;2023-07-31T03:58:55;1.27;;;0.45;;
33206;SDS011;19565;46.602;11.534;2023-07-31T04:01:24;0.65;;;0.43;;
33206;SDS011;19565;46.602;11.534;2023-07-31T04:03:53;0.63;;;0.55;;
33206;SDS011;19565;46.602;11.534;2023-07-31T04:06:21;0.73;;;0.73;;
33206;SDS011;19565;46.602;11.534;2023-07-31T04:08:50;1.25;;;1.15;;
33206;SDS011;19565;46.602;11.534;2023-07-31T04:11:18;0.50;;;0.50;;
33206;SDS011;19565;46.602;11.534;2023-07-31T04:13:46;1.13;;;0.68;;
33206;SDS011;19565;46.602;11.534;2023-07-31T04:16:14;0.82;;;0.50;;
33206;SDS011;19565;46.602;11.534;2023-07-31T04:18:43;1.85;;;1.75;;
33206;SDS011;19565;46.602;11.534;2023-07-31T04:21:11;1.67;;;0.98;;
33206;SDS011;19565;46.602;11.534;2023-07-31T04:23:39;0.88;;;0.88;;
33206;SDS011;19565;46.602;11.534;2023-07-31T04:26:07;2.15;;;0.60;;
33206;SDS011;19565;46.602;11.534;2023-07-31T04:28:35;1.52;;;1.42;;
33206;SDS011;19565;46.602;11.534;2023-07-31T04:31:03;1.35;;;0.93;;
33206;SDS011;19565;46.602;11.534;2023-07-31T04:33:31;0.57;;;0.45;;
33206;SDS011;19565;46.602;11.534;2023-07-31T04:36:01;1.00;;;0.82;;
33206;SDS011;19565;46.602;11.534;2023-07-31T04:38:29;2.72;;;1.60;;
33206;SDS011;19565;46.602;11.534;2023-07-31T04:40:57;0.80;;;0.80;;
33206;SDS011;19565;46.602;11.534;2023-07-31T04:43:25;1.17;;;1.13;;
33206;SDS011;19565;46.602;11.534;2023-07-31T04:45:53;1.55;;;0.85;;
33206;SDS011;19565;46.602;11.534;2023-07-31T04:48:21;0.93;;;0.93;;
33206;SDS011;19565;46.602;11.534;2023-07-31T04:50:49;1.17;;;1.15;;
33206;SDS011;19565;46.602;11.534;2023-07-31T04:53:19;0.80;;;0.80;;
33206;SDS011;19565;46.602;11.534;2023-07-31T04:55:47;0.70;;;0.70;;
33206;SDS011;19565;46.602;11.534;2023-07-31T04:58:15;0.77;;;0.47;;
33206;SDS011;19565;46.602;11.534;2023-07-31T05:00:43;0.65;;;0.50;;
33206;SDS011;19565;46.602;11.534;2023-07-31T05:03:11;1.50;;;1.40;;
33206;SDS011;19565;46.602;11.534;2023-07-31T05:05:39;0.95;;;0.95;;
33206;SDS011;19565;46.602;11.534;2023-07-31T05:08:07;1.10;;;0.75;;
33206;SDS011;19565;46.602;11.534;2023-07-31T05:10:36;1.20;;;1.10;;
33206;SDS011;19565;46.602;11.534;2023-07-31T05:13:04;1.85;;;0.90;;
33206;SDS011;19565;46.602;11.534;2023-07-31T05:15:32;0.68;;;0.65;;
33206;SDS011;19565;46.602;11.534;2023-07-31T05:18:00;0.75;;;0.30;;
33206;SDS011;19565;46.602;11.534;2023-07-31T05:20:28;0.30;;;0.30;;
33206;SDS011;19565;46.602;11.534;2023-07-31T05:22:56;1.80;;;1.30;;
33206;SDS011;19565;46.602;11.534;2023-07-31T05:25:24;0.88;;;0.88;;
33206;SDS011;19565;46.602;11.534;2023-07-31T05:27:54;0.77;;;0.77;;
33206;SDS011;19565;46.602;11.534;2023-07-31T05:30:22;2.85;;;1.45;;
33206;SDS011;19565;46.602;11.534;2023-07-31T05:32:50;0.50;;;0.50;;
33206;SDS011;19565;46.602;11.534;2023-07-31T05:35:18;0.93;;;0.88;;
33206;SDS011;19565;46.602;11.534;2023-07-31T05:37:46;0.85;;;0.73;;
33206;SDS011;19565;46.602;11.534;2023-07-31T05:40:14;0.60;;;0.60;;
33206;SDS011;19565;46.602;11.534;2023-07-31T05:42:42;1.55;;;1.40;;
33206;SDS011;19565;46.602;11.534;2023-07-31T05:45:12;0.52;;;0.52;;
33206;SDS011;19565;46.602;11.534;2023-07-31T05:47:40;1.08;;;0.98;;
33206;SDS011;19565;46.602;11.534;2023-07-31T05:50:08;0.45;;;0.45;;
33206;SDS011;19565;46.602;11.534;2023-07-31T05:52:36;0.80;;;0.80;;
33206;SDS011;19565;46.602;11.534;2023-07-31T05:55:05;1.25;;;0.90;;
33206;SDS011;19565;46.602;11.534;2023-07-31T05:57:34;5.78;;;1.38;;
33206;SDS011;19565;46.602;11.534;2023-07-31T06:00:02;2.92;;;2.00;;
33206;SDS011;19565;46.602;11.534;2023-07-31T06:02:32;1.58;;;0.70;;
33206;SDS011;19565;46.602;11.534;2023-07-31T06:05:03;0.38;;;0.38;;
33206;SDS011;19565;46.602;11.534;2023-07-31T06:07:33;1.15;;;1.15;;
33206;SDS011;19565;46.602;11.534;2023-07-31T06:10:01;0.65;;;0.65;;
33206;SDS011;19565;46.602;11.534;2023-07-31T06:12:32;2.40;;;1.50;;
33206;SDS011;19565;46.602;11.534;2023-07-31T06:15:00;16.85;;;1.15;;
33206;SDS011;19565;46.602;11.534;2023-07-31T06:17:30;1.83;;;1.20;;
33206;SDS011;19565;46.602;11.534;2023-07-31T06:19:59;0.70;;;0.70;;
33206;SDS011;19565;46.602;11.534;2023-07-31T06:22:27;1.67;;;1.40;;
33206;SDS011;19565;46.602;11.534;2023-07-31T06:24:55;1.45;;;1.15;;
33206;SDS011;19565;46.602;11.534;2023-07-31T06:27:23;1.20;;;0.88;;
33206;SDS011;19565;46.602;11.534;2023-07-31T06:29:51;1.52;;;0.90;;
33206;SDS011;19565;46.602;11.534;2023-07-31T06:32:19;1.88;;;1.45;;
33206;SDS011;19565;46.602;11.534;2023-07-31T06:34:48;1.23;;;1.13;;
33206;SDS011;19565;46.602;11.534;2023-07-31T06:37:17;1.23;;;1.05;;
33206;SDS011;19565;46.602;11.534;2023-07-31T06:39:45;1.00;;;0.90;;
33206;SDS011;19565;46.602;11.534;2023-07-31T06:42:13;1.95;;;1.13;;
33206;SDS011;19565;46.602;11.534;2023-07-31T06:44:41;1.35;;;1.30;;
33206;SDS011;19565;46.602;11.534;2023-07-31T06:47:09;2.05;;;1.90;;
33206;SDS011;19565;46.602;11.534;2023-07-31T06:49:37;1.35;;;1.25;;
33206;SDS011;19565;46.602;11.534;2023-07-31T06:52:06;1.33;;;1.33;;
33206;SDS011;19565;46.602;11.534;2023-07-31T06:54:35;3.47;;;1.92;;
33206;SDS011;19565;46.602;11.534;2023-07-31T06:57:03;4.85;;;1.48;;
33206;SDS011;19565;46.602;11.534;2023-07-31T06:59:32;1.65;;;1.55;;
33206;SDS011;19565;46.602;11.534;2023-07-31T07:02:00;5.22;;;4.90;;
33206;SDS011;19565;46.602;11.534;2023-07-31T07:04:32;4.32;;;4.13;;
33206;SDS011;19565;46.602;11.534;2023-07-31T07:07:00;6.00;;;5.50;;
33206;SDS011;19565;46.602;11.534;2023-07-31T07:09:28;5.93;;;5.53;;
33206;SDS011;19565;46.602;11.534;2023-07-31T07:11:57;6.90;;;6.47;;
33206;SDS011;19565;46.602;11.534;2023-07-31T07:14:25;6.10;;;5.70;;
33206;SDS011;19565;46.602;11.534;2023-07-31T07:16:53;7.30;;;6.82;;
33206;SDS011;19565;46.602;11.534;2023-07-31T07:19:22;8.00;;;7.50;;
33206;SDS011;19565;46.602;11.534;2023-07-31T07:21:50;9.65;;;9.07;;
33206;SDS011;19565;46.602;11.534;2023-07-31T07:24:18;9.38;;;8.75;;
33206;SDS011;19565;46.602;11.534;2023-07-31T07:26:46;9.90;;;9.30;;
33206;SDS011;19565;46.602;11.534;2023-07-31T07:29:15;9.80;;;9.25;;
33206;SDS011;19565;46.602;11.534;2023-07-31T07:31:43;11.05;;;10.45;;
33206;SDS011;19565;46.602;11.534;2023-07-31T07:34:11;13.02;;;12.23;;
33206;SDS011;19565;46.602;11.534;2023-07-31T07:36:39;14.52;;;13.73;;
33206;SDS011;19565;46.602;11.534;2023-07-31T07:39:08;15.73;;;14.93;;
33206;SDS011;19565;46.602;11.534;2023-07-31T07:41:37;18.38;;;17.25;;
33206;SDS011;19565;46.602;11.534;2023-07-31T07:44:05;18.02;;;17.13;;
33206;SDS011;19565;46.602;11.534;2023-07-31T07:46:35;19.25;;;18.27;;
33206;SDS011;19565;46.602;11.534;2023-07-31T07:49:03;21.13;;;20.13;;
33206;SDS011;19565;46.602;11.534;2023-07-31T07:51:31;23.90;;;22.75;;
33206;SDS011;19565;46.602;11.534;2023-07-31T07:54:00;24.10;;;23.00;;
33206;SDS011;19565;46.602;11.534;2023-07-31T07:56:28;23.98;;;22.88;;
33206;SDS011;19565;46.602;11.534;2023-07-31T07:58:56;23.92;;;22.92;;
33206;SDS011;19565;46.602;11.534;2023-07-31T08:01:24;25.15;;;24.05;;
33206;SDS011;19565;46.602;11.534;2023-07-31T08:03:54;25.85;;;24.55;;
33206;SDS011;19565;46.602;11.534;2023-07-31T08:06:22;28.55;;;27.35;;
33206;SDS011;19565;46.602;11.534;2023-07-31T08:08:50;27.98;;;26.67;;
33206;SDS011;19565;46.602;11.534;2023-07-31T08:11:18;31.67;;;30.27;;
33206;SDS011;19565;46.602;11.534;2023-07-31T08:13:46;32.80;;;31.40;;
33206;SDS011;19565;46.602;11.534;2023-07-31T08:16:14;33.85;;;32.45;;
33206;SDS011;19565;46.602;11.534;2023-07-31T08:18:43;35.40;;;33.90;;
33206;SDS011;19565;46.602;11.534;2023-07-31T08:21:12;38.17;;;36.58;;
33206;SDS011;19565;46.602;11.534;2023-07-31T08:23:41;44.08;;;42.20;;
33206;SDS011;19565;46.602;11.534;2023-07-31T08:26:13;42.15;;;40.35;;
33206;SDS011;19565;46.602;11.534;2023-07-31T08:28:42;44.58;;;42.78;;
33206;SDS011;19565;46.602;11.534;2023-07-31T08:31:10;51.00;;;47.88;;
33206;SDS011;19565;46.602;11.534;2023-07-31T08:33:38;50.92;;;48.83;;
33206;SDS011;19565;46.602;11.534;2023-07-31T08:36:07;51.83;;;49.63;;
33206;SDS011;19565;46.602;11.534;2023-07-31T08:38:36;54.28;;;52.05;;
33206;SDS011;19565;46.602;11.534;2023-07-31T08:41:04;57.28;;;54.78;;
33206;SDS011;19565;46.602;11.534;2023-07-31T08:43:33;63.45;;;60.75;;
33206;SDS011;19565;46.602;11.534;2023-07-31T08:46:01;60.40;;;56.40;;
33206;SDS011;19565;46.602;11.534;2023-07-31T08:48:30;62.25;;;59.65;;
33206;SDS011;19565;46.602;11.534;2023-07-31T08:50:59;58.78;;;56.28;;
33206;SDS011;19565;46.602;11.534;2023-07-31T08:53:27;59.30;;;56.80;;
33206;SDS011;19565;46.602;11.534;2023-07-31T08:55:57;64.20;;;61.50;;
33206;SDS011;19565;46.602;11.534;2023-07-31T08:58:27;66.80;;;63.90;;
33206;SDS011;19565;46.602;11.534;2023-07-31T09:00:58;66.13;;;63.33;;
33206;SDS011;19565;46.602;11.534;2023-07-31T09:03:32;73.22;;;70.18;;
33206;SDS011;19565;46.602;11.534;2023-07-31T09:06:02;64.72;;;61.92;;
33206;SDS011;19565;46.602;11.534;2023-07-31T09:08:32;66.63;;;63.78;;
33206;SDS011;19565;46.602;11.534;2023-07-31T09:11:02;68.40;;;65.35;;
33206;SDS011;19565;46.602;11.534;2023-07-31T09:13:33;73.35;;;70.20;;
33206;SDS011;19565;46.602;11.534;2023-07-31T09:16:01;70.40;;;67.40;;
33206;SDS011;19565;46.602;11.534;2023-07-31T09:18:29;66.70;;;63.80;;
33206;SDS011;19565;46.602;11.534;2023-07-31T09:21:00;74.53;;;71.22;;
33206;SDS011;19565;46.602;11.534;2023-07-31T09:23:40;71.50;;;68.43;;
33206;SDS011;19565;46.602;11.534;2023-07-31T09:26:10;67.55;;;64.65;;
33206;SDS011;19565;46.602;11.534;2023-07-31T09:28:38;68.45;;;65.45;;
33206;SDS011;19565;46.602;11.534;2023-07-31T09:31:06;70.78;;;67.75;;
33206;SDS011;19565;46.602;11.534;2023-07-31T09:33:34;71.78;;;68.78;;
33206;SDS011;19565;46.602;11.534;2023-07-31T09:36:21;71.95;;;68.85;;
33206;SDS011;19565;46.602;11.534;2023-07-31T09:38:49;67.97;;;65.07;;
33206;SDS011;19565;46.602;11.534;2023-07-31T09:41:20;68.45;;;65.55;;
33206;SDS011;19565;46.602;11.534;2023-07-31T09:43:52;73.75;;;70.65;;
33206;SDS011;19565;46.602;11.534;2023-07-31T09:46:21;70.10;;;67.13;;
33206;SDS011;19565;46.602;11.534;2023-07-31T09:48:49;77.43;;;74.13;;
33206;SDS011;19565;46.602;11.534;2023-07-31T09:51:17;74.38;;;71.28;;
33206;SDS011;19565;46.602;11.534;2023-07-31T09:53:53;70.80;;;67.80;;
33206;SDS011;19565;46.602;11.534;2023-07-31T09:56:23;75.50;;;72.30;;
33206;SDS011;19565;46.602;11.534;2023-07-31T09:58:52;71.47;;;68.43;;
33206;SDS011;19565;46.602;11.534;2023-07-31T10:01:23;82.45;;;78.85;;
33206;SDS011;19565;46.602;11.534;2023-07-31T10:03:51;95.38;;;91.50;;
33206;SDS011;19565;46.602;11.534;2023-07-31T10:06:19;91.55;;;87.75;;
33206;SDS011;19565;46.602;11.534;2023-07-31T10:08:49;91.00;;;87.30;;
33206;SDS011;19565;46.602;11.534;2023-07-31T10:11:20;100.15;;;95.97;;
33206;SDS011;19565;46.602;11.534;2023-07-31T10:13:53;97.70;;;93.70;;
33206;SDS011;19565;46.602;11.534;2023-07-31T10:16:22;99.97;;;95.93;;
33206;SDS011;19565;46.602;11.534;2023-07-31T10:18:51;86.63;;;82.95;;
33206;SDS011;19565;46.602;11.534;2023-07-31T10:21:20;84.75;;;81.18;;
33206;SDS011;19565;46.602;11.534;2023-07-31T10:23:48;104.82;;;100.63;;
33206;SDS011;19565;46.602;11.534;2023-07-31T10:26:17;99.15;;;94.85;;
33206;SDS011;19565;46.602;11.534;2023-07-31T10:28:48;98.47;;;94.50;;
33206;SDS011;19565;46.602;11.534;2023-07-31T10:31:20;95.90;;;91.90;;
33206;SDS011;19565;46.602;11.534;2023-07-31T10:33:49;98.80;;;94.80;;
33206;SDS011;19565;46.602;11.534;2023-07-31T10:36:17;101.88;;;97.78;;
33206;SDS011;19565;46.602;11.534;2023-07-31T10:38:46;96.18;;;91.35;;
33206;SDS011;19565;46.602;11.534;2023-07-31T10:41:16;95.57;;;91.75;;
33206;SDS011;19565;46.602;11.534;2023-07-31T10:43:45;95.97;;;92.10;;
33206;SDS011;19565;46.602;11.534;2023-07-31T10:46:15;90.35;;;86.65;;
33206;SDS011;19565;46.602;11.534;2023-07-31T10:48:43;95.00;;;91.10;;
33206;SDS011;19565;46.602;11.534;2023-07-31T10:51:11;89.22;;;84.47;;
33206;SDS011;19565;46.602;11.534;2023-07-31T10:53:40;83.90;;;80.50;;
33206;SDS011;19565;46.602;11.534;2023-07-31T10:56:08;87.82;;;84.22;;
33206;SDS011;19565;46.602;11.534;2023-07-31T10:58:39;86.90;;;83.30;;
33206;SDS011;19565;46.602;11.534;2023-07-31T11:01:08;86.82;;;83.22;;
33206;SDS011;19565;46.602;11.534;2023-07-31T11:03:45;84.30;;;80.82;;
33206;SDS011;19565;46.602;11.534;2023-07-31T11:06:15;85.47;;;81.85;;
33206;SDS011;19565;46.602;11.534;2023-07-31T11:08:45;79.32;;;75.85;;
33206;SDS011;19565;46.602;11.534;2023-07-31T11:11:15;81.05;;;77.65;;
33206;SDS011;19565;46.602;11.534;2023-07-31T11:13:45;82.63;;;79.15;;
33206;SDS011;19565;46.602;11.534;2023-07-31T11:16:16;82.63;;;79.03;;
33206;SDS011;19565;46.602;11.534;2023-07-31T11:18:47;78.85;;;75.47;;
33206;SDS011;19565;46.602;11.534;2023-07-31T11:21:18;78.15;;;74.75;;
33206;SDS011;19565;46.602;11.534;2023-07-31T11:23:47;81.93;;;78.43;;
33206;SDS011;19565;46.602;11.534;2023-07-31T11:26:16;82.93;;;79.43;;
33206;SDS011;19565;46.602;11.534;2023-07-31T11:28:46;86.53;;;82.90;;
33206;SDS011;19565;46.602;11.534;2023-07-31T11:31:15;80.85;;;77.25;;
33206;SDS011;19565;46.602;11.534;2023-07-31T11:33:43;81.82;;;78.32;;
33206;SDS011;19565;46.602;11.534;2023-07-31T11:36:15;77.63;;;74.35;;
33206;SDS011;19565;46.602;11.534;2023-07-31T11:38:44;76.13;;;72.93;;
33206;SDS011;19565;46.602;11.534;2023-07-31T11:41:13;79.97;;;76.60;;
33206;SDS011;19565;46.602;11.534;2023-07-31T11:43:42;76.25;;;72.95;;
33206;SDS011;19565;46.602;11.534;2023-07-31T11:46:10;78.57;;;75.28;;
33206;SDS011;19565;46.602;11.534;2023-07-31T11:48:41;71.43;;;68.43;;
33206;SDS011;19565;46.602;11.534;2023-07-31T11:51:10;71.57;;;68.57;;
33206;SDS011;19565;46.602;11.534;2023-07-31T11:53:41;73.45;;;70.28;;
33206;SDS011;19565;46.602;11.534;2023-07-31T11:56:13;74.13;;;71.03;;
33206;SDS011;19565;46.602;11.534;2023-07-31T11:58:44;69.97;;;66.95;;
33206;SDS011;19565;46.602;11.534;2023-07-31T12:01:15;81.30;;;77.90;;
33206;SDS011;19565;46.602;11.534;2023-07-31T12:03:45;80.03;;;76.63;;
33206;SDS011;19565;46.602;11.534;2023-07-31T12:06:13;75.57;;;72.38;;
33206;SDS011;19565;46.602;11.534;2023-07-31T12:08:43;76.70;;;73.40;;
33206;SDS011;19565;46.602;11.534;2023-07-31T12:11:11;78.43;;;74.45;;
33206;SDS011;19565;46.602;11.534;2023-07-31T12:13:41;76.93;;;73.72;;
33206;SDS011;19565;46.602;11.534;2023-07-31T12:16:09;75.90;;;72.60;;
33206;SDS011;19565;46.602;11.534;2023-07-31T12:18:37;70.28;;;67.28;;
33206;SDS011;19565;46.602;11.534;2023-07-31T12:21:06;70.03;;;67.03;;
33206;SDS011;19565;46.602;11.534;2023-07-31T12:23:37;69.15;;;66.15;;
33206;SDS011;19565;46.602;11.534;2023-07-31T12:26:10;73.63;;;70.47;;
33206;SDS011;19565;46.602;11.534;2023-07-31T12:28:40;72.20;;;69.10;;
33206;SDS011;19565;46.602;11.534;2023-07-31T12:31:10;76.30;;;73.05;;
33206;SDS011;19565;46.602;11.534;2023-07-31T12:33:39;77.63;;;74.32;;
33206;SDS011;19565;46.602;11.534;2023-07-31T12:36:09;88.53;;;84.93;;
33206;SDS011;19565;46.602;11.534;2023-07-31T12:38:38;97.30;;;93.35;;
33206;SDS011;19565;46.602;11.534;2023-07-31T12:41:07;94.45;;;90.65;;
33206;SDS011;19565;46.602;11.534;2023-07-31T12:43:37;84.95;;;81.40;;
33206;SDS011;19565;46.602;11.534;2023-07-31T12:46:06;71.95;;;68.90;;
33206;SDS011;19565;46.602;11.534;2023-07-31T12:48:35;72.95;;;69.93;;
33206;SDS011;19565;46.602;11.534;2023-07-31T12:51:04;73.20;;;69.70;;
33206;SDS011;19565;46.602;11.534;2023-07-31T12:53:34;71.55;;;68.45;;
33206;SDS011;19565;46.602;11.534;2023-07-31T12:56:02;71.20;;;68.20;;
33206;SDS011;19565;46.602;11.534;2023-07-31T12:58:31;77.50;;;74.28;;
33206;SDS011;19565;46.602;11.534;2023-07-31T13:01:00;76.90;;;73.70;;
33206;SDS011;19565;46.602;11.534;2023-07-31T13:03:29;78.93;;;75.63;;
33206;SDS011;19565;46.602;11.534;2023-07-31T13:05:57;77.30;;;74.00;;
33206;SDS011;19565;46.602;11.534;2023-07-31T13:08:25;82.78;;;79.28;;
33206;SDS011;19565;46.602;11.534;2023-07-31T13:10:53;83.53;;;79.97;;
33206;SDS011;19565;46.602;11.534;2023-07-31T13:13:21;79.57;;;76.22;;
33206;SDS011;19565;46.602;11.534;2023-07-31T13:15:49;82.38;;;78.88;;
33206;SDS011;19565;46.602;11.534;2023-07-31T13:18:19;77.20;;;73.75;;
33206;SDS011;19565;46.602;11.534;2023-07-31T13:20:47;72.28;;;69.28;;
33206;SDS011;19565;46.602;11.534;2023-07-31T13:23:15;76.32;;;73.13;;
33206;SDS011;19565;46.602;11.534;2023-07-31T13:25:43;78.50;;;75.20;;
33206;SDS011;19565;46.602;11.534;2023-07-31T13:28:11;85.68;;;82.07;;
33206;SDS011;19565;46.602;11.534;2023-07-31T13:30:39;83.32;;;79.82;;
33206;SDS011;19565;46.602;11.534;2023-07-31T13:33:07;81.15;;;77.78;;
33206;SDS011;19565;46.602;11.534;2023-07-31T13:35:52;75.53;;;72.22;;
33206;SDS011;19565;46.602;11.534;2023-07-31T13:38:20;73.25;;;70.15;;
33206;SDS011;19565;46.602;11.534;2023-07-31T13:40:48;77.72;;;74.32;;
33206;SDS011;19565;46.602;11.534;2023-07-31T13:43:16;79.75;;;76.40;;
33206;SDS011;19565;46.602;11.534;2023-07-31T13:45:44;78.18;;;74.88;;
33206;SDS011;19565;46.602;11.534;2023-07-31T13:48:12;75.97;;;72.78;;
33206;SDS011;19565;46.602;11.534;2023-07-31T13:50:40;83.03;;;79.53;;
33206;SDS011;19565;46.602;11.534;2023-07-31T13:53:09;81.72;;;78.30;;
33206;SDS011;19565;46.602;11.534;2023-07-31T13:55:38;85.90;;;82.28;;
33206;SDS011;19565;46.602;11.534;2023-07-31T13:58:06;74.78;;;71.68;;
33206;SDS011;19565;46.602;11.534;2023-07-31T14:00:34;69.95;;;66.95;;
33206;SDS011;19565;46.602;11.534;2023-07-31T14:03:02;72.88;;;69.88;;
33206;SDS011;19565;46.602;11.534;2023-07-31T14:05:30;74.43;;;71.32;;
33206;SDS011;19565;46.602;11.534;2023-07-31T14:07:58;74.70;;;71.68;;
33206;SDS011;19565;46.602;11.534;2023-07-31T14:10:28;68.60;;;65.43;;
33206;SDS011;19565;46.602;11.534;2023-07-31T14:12:56;68.10;;;65.20;;
33206;SDS011;19565;46.602;11.534;2023-07-31T14:15:24;73.70;;;70.60;;
33206;SDS011;19565;46.602;11.534;2023-07-31T14:17:52;70.80;;;67.80;;
33206;SDS011;19565;46.602;11.534;2023-07-31T14:20:23;74.80;;;71.70;;
33206;SDS011;19565;46.602;11.534;2023-07-31T14:22:51;71.03;;;68.10;;
33206;SDS011;19565;46.602;11.534;2023-07-31T14:25:19;69.90;;;67.00;;
33206;SDS011;19565;46.602;11.534;2023-07-31T14:27:49;67.88;;;64.88;;
33206;SDS011;19565;46.602;11.534;2023-07-31T14:30:17;83.40;;;79.97;;